Homer Airport Homer US
ICAO: PAHO
IATA:
Category: Medium
Scheduled Services:

Elevation: 84 ft
TransAlt. 18000 ft.

Airport Communications:
ASOS:135.65
ANCHORAGE CNTR:125.9
CTAF:123.6
RDO:123.6
TWEB:114.6
KENAI RDO:123.6
UNICOM:123.05

PAHO Zoom In..

If Map Doesn't Load, Click Here

Runways:

(A) RW 04 length 6701 ft width 150 ft
LOC 109.30 / hdg 38

(B) RW 22 length 6701 ft width 150 ft
LOC 109.30 / hdg 218

Location; PAHO
Day. 24 / Time. 05.53 Zulu
* Altimeter: 29.79
* Temperature: 09° c. 48.2°f.
* Wind from: 040° Speed 06 kn.
Dewpoint: 08° c.
Visibility: 6 Statute Miles.
Clouds: Overcast 6000 ft.
Conditions: Rain.Conditions: Mist.

PAHO 240553Z AUTO 04006KT 6SM RA BR OVC060 09/08 A2979 RMK AO2 SLP087 P0010 60012 T00890078 10128 20089 58015 TSNO


Wind From 040°
Speed 06 kn.

 
 
jpsmedia.com for Web Design worldairports.se 2018   terms of use